Time;durP1;ratioP1;P1;durP2;ratioP2;P2;SDS_P1;SDS_P2;PMS_P1;PMS_P2;Temp;Humidity;BMP_temperature;BMP_pressure;BME280_temperature;BME280_humidity;BME280_pressure;Samples;Min_cycle;Max_cycle;Signal;HPM_P1;HPM_P2
2023/09/27 00:01:48;;;;;;;7.63;4.80;;;;;;;14.33;79.68;99293.72;5019806;28;20104;-80
2023/09/27 00:04:13;;;;;;;7.65;5.03;;;;;;;14.46;79.28;99289.75;5044842;28;20063;-81
2023/09/27 00:06:38;;;;;;;10.63;5.65;;;;;;;14.52;79.04;99300.25;5002254;28;20044;-80
2023/09/27 00:09:04;;;;;;;7.68;5.13;;;;;;;14.67;78.55;99311.06;5042531;28;20055;-81
2023/09/27 00:11:29;;;;;;;7.55;4.95;;;;;;;14.56;78.60;99311.28;5025827;28;20037;-80
2023/09/27 00:13:55;;;;;;;5.82;4.50;;;;;;;14.52;79.09;99315.56;5008592;28;20540;-80
2023/09/27 00:16:20;;;;;;;5.90;5.40;;;;;;;14.45;79.07;99318.50;5041207;28;20114;-80
2023/09/27 00:18:45;;;;;;;6.82;4.22;;;;;;;14.31;79.06;99305.81;5035688;28;20029;-81
2023/09/27 00:21:11;;;;;;;10.88;6.47;;;;;;;14.50;79.09;99298.91;5020927;28;20038;-80
2023/09/27 00:23:37;;;;;;;5.78;4.93;;;;;;;14.36;78.84;99293.19;5042458;28;20526;-81
2023/09/27 00:26:02;;;;;;;5.75;5.15;;;;;;;14.53;79.15;99315.28;5023653;28;20021;-81
2023/09/27 00:28:27;;;;;;;5.40;4.90;;;;;;;14.46;78.56;99311.25;5044647;28;20503;-81
2023/09/27 00:30:53;;;;;;;9.32;4.97;;;;;;;14.45;79.13;99315.00;5043845;28;20033;-81
2023/09/27 00:33:19;;;;;;;7.50;4.85;;;;;;;14.33;79.37;99312.50;5020411;28;20128;-81
2023/09/27 00:35:50;;;;;;;6.53;4.57;;;;;;;14.27;79.33;99300.09;5036560;28;20492;-81
2023/09/27 00:38:16;;;;;;;7.68;4.60;;;;;;;14.41;79.12;99305.84;5033611;28;20037;-81
2023/09/27 00:40:48;;;;;;;6.72;4.97;;;;;;;14.34;79.16;99311.44;5041408;28;20036;-81
2023/09/27 00:43:32;;;;;;;9.63;5.05;;;;;;;14.17;79.34;99306.25;5032631;28;20032;-81
2023/09/27 00:46:03;;;;;;;6.32;4.38;;;;;;;14.18;78.79;99320.44;5031832;28;20426;-81
2023/09/27 00:48:31;;;;;;;5.97;4.22;;;;;;;14.18;78.79;99304.34;5031219;28;20083;-81
2023/09/27 00:50:57;;;;;;;6.05;4.82;;;;;;;14.30;79.31;99315.72;5049342;28;20033;-80
2023/09/27 00:53:25;;;;;;;11.15;4.82;;;;;;;14.27;78.72;99311.66;5042123;28;20055;-81
2023/09/27 00:55:51;;;;;;;6.20;4.63;;;;;;;14.31;79.07;99317.34;5048527;28;20493;-81
2023/09/27 00:58:19;;;;;;;6.30;4.72;;;;;;;14.16;79.38;99325.28;5050469;28;20032;-81
2023/09/27 01:00:48;;;;;;;5.20;4.65;;;;;;;14.03;79.50;99293.53;5045755;28;20574;-81
2023/09/27 01:03:13;;;;;;;7.93;4.40;;;;;;;14.18;79.16;99301.66;5048940;28;20054;-81
2023/09/27 01:05:41;;;;;;;6.38;4.90;;;;;;;14.32;78.61;99291.28;5045529;28;20104;-81
2023/09/27 01:08:06;;;;;;;5.28;4.50;;;;;;;14.19;78.99;99293.38;5047670;28;20556;-81
2023/09/27 01:10:32;;;;;;;9.55;5.20;;;;;;;14.04;79.26;99274.47;5043663;28;20033;-80
2023/09/27 01:12:57;;;;;;;5.70;5.07;;;;;;;14.13;79.09;99277.50;5046640;28;20078;-80
2023/09/27 01:15:23;;;;;;;6.75;4.85;;;;;;;14.02;79.53;99316.88;5047869;28;20030;-82
2023/09/27 01:18:00;;;;;;;7.50;4.82;;;;;;;14.08;79.13;99331.97;5032610;28;20057;-81
2023/09/27 01:20:27;;;;;;;5.47;4.93;;;;;;;14.16;79.24;99312.66;5050268;28;20107;-81
2023/09/27 01:23:03;;;;;;;6.45;4.90;;;;;;;14.22;78.93;99286.63;5046911;28;20124;-81
2023/09/27 01:25:36;;;;;;;7.05;5.20;;;;;;;14.15;79.00;99286.09;5040911;28;20452;-81
2023/09/27 01:28:03;;;;;;;8.50;5.15;;;;;;;13.98;79.17;99254.03;5045585;28;20041;-80
2023/09/27 01:30:32;;;;;;;5.38;4.85;;;;;;;14.04;79.19;99276.38;5009050;28;20440;-80
2023/09/27 01:33:06;;;;;;;12.40;5.53;;;;;;;13.92;79.44;99295.34;5046838;28;20029;-81
2023/09/27 01:35:36;;;;;;;6.60;5.07;;;;;;;13.99;79.55;99313.91;5048849;28;20135;-81
2023/09/27 01:38:03;;;;;;;6.07;5.47;;;;;;;14.07;79.43;99305.34;5042535;28;20041;-80
2023/09/27 01:40:31;;;;;;;7.53;4.68;;;;;;;13.95;79.88;99305.56;5031981;28;20033;-81
2023/09/27 01:43:01;;;;;;;7.78;5.95;;;;;;;13.97;79.94;99318.72;5048626;28;20035;-81
2023/09/27 01:45:29;;;;;;;10.73;5.35;;;;;;;13.85;80.22;99300.13;5048355;28;20021;-81
2023/09/27 01:48:01;;;;;;;8.20;5.82;;;;;;;13.98;79.71;99291.63;5050648;28;20036;-80
2023/09/27 01:50:28;;;;;;;7.72;5.68;;;;;;;14.03;79.38;99288.16;5046702;28;20031;-80
2023/09/27 01:52:56;;;;;;;6.55;5.03;;;;;;;13.96;79.79;99298.31;5044755;28;20037;-80
2023/09/27 01:55:22;;;;;;;14.25;6.03;;;;;;;13.89;79.61;99287.78;5044221;28;20029;-81
2023/09/27 01:57:47;;;;;;;5.68;5.18;;;;;;;14.00;79.86;99310.16;5049675;28;20079;-80
2023/09/27 02:00:14;;;;;;;7.18;5.68;;;;;;;13.94;79.64;99301.25;5039107;28;20440;-81
2023/09/27 02:02:50;;;;;;;5.93;5.25;;;;;;;13.81;79.90;99290.16;5046568;28;20083;-80
2023/09/27 02:05:16;;;;;;;;;;;;;;;14.05;79.27;99315.53;5049286;28;20103;-80
2023/09/27 02:07:41;;;;;;;9.00;5.43;;;;;;;13.85;79.77;99299.31;5048940;28;20015;-80
2023/09/27 02:10:08;;;;;;;7.10;5.05;;;;;;;13.79;79.72;99293.09;5026845;28;20416;-81
2023/09/27 02:12:33;;;;;;;7.43;5.03;;;;;;;13.76;79.95;99304.34;5045493;28;20044;-81
2023/09/27 02:14:59;;;;;;;6.90;5.15;;;;;;;13.85;79.91;99310.03;5047894;28;20041;-81
2023/09/27 02:17:25;;;;;;;7.35;4.65;;;;;;;13.84;79.77;99298.50;5047882;28;20037;-81
2023/09/27 02:19:50;;;;;;;13.05;5.95;;;;;;;13.69;79.81;99281.50;5049375;28;20107;-80
2023/09/27 02:22:16;;;;;;;7.15;5.00;;;;;;;13.79;79.44;99300.34;5049339;28;20035;-80
2023/09/27 02:24:41;;;;;;;5.45;4.95;;;;;;;13.73;79.89;99298.69;5047051;28;20033;-80
2023/09/27 02:27:06;;;;;;;6.55;5.28;;;;;;;13.65;79.34;99286.56;5044321;28;20495;-81
2023/09/27 02:29:32;;;;;;;7.45;5.63;;;;;;;13.69;79.71;99293.03;5049504;28;20036;-80
2023/09/27 02:31:58;;;;;;;5.72;5.22;;;;;;;13.68;79.28;99280.69;5048570;28;20570;-81
2023/09/27 02:34:24;;;;;;;8.80;5.35;;;;;;;13.70;78.79;99285.78;5028143;28;20037;-81
2023/09/27 02:36:49;;;;;;;5.30;4.80;;;;;;;13.65;79.31;99281.19;5028053;28;20420;-81
2023/09/27 02:39:15;;;;;;;6.55;4.95;;;;;;;13.64;79.35;99286.81;5045265;28;20427;-81
2023/09/27 02:41:40;;;;;;;8.82;5.70;;;;;;;13.62;79.07;99288.94;5028688;28;20072;-81
2023/09/27 02:44:06;;;;;;;6.40;5.57;;;;;;;13.65;79.41;99288.44;5046345;28;20040;-81
2023/09/27 02:46:32;;;;;;;10.32;6.38;;;;;;;13.73;79.06;99287.97;5007785;28;20513;-81
2023/09/27 02:48:57;;;;;;;6.55;5.60;;;;;;;13.55;79.18;99289.19;5011765;28;20036;-81
2023/09/27 02:51:23;;;;;;;7.38;5.15;;;;;;;13.61;78.82;99285.47;5040378;28;20107;-81
2023/09/27 02:53:49;;;;;;;6.35;5.65;;;;;;;13.65;78.94;99281.19;5040778;28;20041;-80
2023/09/27 02:56:14;;;;;;;6.75;5.63;;;;;;;13.67;78.97;99307.78;5028151;28;20033;-80
2023/09/27 02:58:39;;;;;;;8.65;5.63;;;;;;;13.45;79.94;99307.88;5048069;28;20043;-81
2023/09/27 03:01:05;;;;;;;6.70;5.40;;;;;;;13.45;80.65;99310.56;5044208;28;21490;-81
2023/09/27 03:03:31;;;;;;;9.18;5.95;;;;;;;13.57;80.29;99305.00;5046975;28;20146;-81
2023/09/27 03:05:58;;;;;;;11.13;6.10;;;;;;;13.47;80.13;99313.78;5030143;28;20051;-81
2023/09/27 03:08:24;;;;;;;14.43;5.68;;;;;;;13.45;79.85;99303.28;5045285;28;20056;-82
2023/09/27 03:10:49;;;;;;;7.00;6.07;;;;;;;13.36;80.10;99291.44;5043165;28;20028;-81
2023/09/27 03:13:15;;;;;;;6.55;5.82;;;;;;;13.34;80.24;99298.94;5024745;28;20451;-81
2023/09/27 03:15:41;;;;;;;6.68;5.40;;;;;;;13.35;80.38;99313.94;5046845;28;20052;-80
2023/09/27 03:18:06;;;;;;;8.02;5.65;;;;;;;13.40;79.96;99315.88;5038863;28;20029;-81
2023/09/27 03:20:32;;;;;;;5.85;5.35;;;;;;;13.58;79.50;99326.22;5022910;28;20052;-81
2023/09/27 03:22:58;;;;;;;6.50;5.80;;;;;;;13.55;79.20;99329.41;5039416;28;20091;-80
2023/09/27 03:25:24;;;;;;;6.82;6.03;;;;;;;13.24;80.01;99338.22;5043757;28;20026;-80
2023/09/27 03:27:49;;;;;;;5.53;4.70;;;;;;;13.57;79.36;99337.19;5048121;28;20033;-80
2023/09/27 03:30:16;;;;;;;8.07;6.18;;;;;;;13.39;78.93;99317.72;5047240;28;20025;-80
2023/09/27 03:32:41;;;;;;;6.85;5.95;;;;;;;13.58;79.12;99344.19;5041445;28;20052;-80
2023/09/27 03:35:08;;;;;;;7.00;5.53;;;;;;;13.50;79.26;99350.81;5045260;28;20071;-81
2023/09/27 03:37:34;;;;;;;6.50;5.28;;;;;;;13.32;79.71;99346.63;5040711;28;20564;-80
2023/09/27 03:40:00;;;;;;;12.60;5.70;;;;;;;13.37;79.62;99353.91;5029000;28;20156;-80
2023/09/27 03:42:26;;;;;;;7.90;5.85;;;;;;;13.34;79.16;99339.16;5045727;28;20120;-80
2023/09/27 03:44:54;;;;;;;8.82;5.03;;;;;;;13.31;79.65;99347.69;5029966;28;20036;-80
2023/09/27 03:47:20;;;;;;;6.93;6.28;;;;;;;13.27;79.81;99354.63;5045819;28;20056;-81
2023/09/27 03:49:45;;;;;;;7.05;6.30;;;;;;;13.27;79.65;99343.09;5042590;28;20100;-81
2023/09/27 03:52:10;;;;;;;9.20;6.05;;;;;;;13.35;79.50;99366.75;5042941;28;20025;-80
2023/09/27 03:54:36;;;;;;;10.27;5.47;;;;;;;13.21;79.43;99352.16;5047078;28;20491;-80
2023/09/27 03:57:01;;;;;;;6.38;5.75;;;;;;;13.31;79.64;99381.72;5042240;28;20132;-79
2023/09/27 03:59:27;;;;;;;6.30;5.70;;;;;;;13.36;79.73;99382.59;5046185;28;20040;-79
2023/09/27 04:01:52;;;;;;;7.45;6.65;;;;;;;13.32;79.17;99372.66;5025601;28;20032;-80
2023/09/27 04:04:18;;;;;;;6.72;5.97;;;;;;;13.37;79.40;99384.22;5028636;28;20420;-79
2023/09/27 04:06:44;;;;;;;6.85;5.60;;;;;;;13.25;80.03;99383.56;5044953;28;20017;-79
2023/09/27 04:09:10;;;;;;;7.70;6.07;;;;;;;13.22;79.27;99359.94;5030592;28;20032;-79
2023/09/27 04:11:36;;;;;;;7.55;6.22;;;;;;;13.13;79.67;99352.59;5041385;28;20426;-80
2023/09/27 04:14:03;;;;;;;7.53;6.10;;;;;;;13.05;79.75;99353.88;5048881;28;20041;-79
2023/09/27 04:16:30;;;;;;;6.78;5.55;;;;;;;13.10;79.49;99361.16;5008079;28;20459;-79
2023/09/27 04:18:59;;;;;;;8.15;6.68;;;;;;;13.34;78.72;99368.66;5000272;28;20050;-79
2023/09/27 04:21:25;;;;;;;7.97;6.07;;;;;;;13.25;79.23;99355.94;5044109;28;20082;-82
2023/09/27 04:23:57;;;;;;;6.00;5.22;;;;;;;13.25;78.91;99354.06;5041554;28;20036;-81
2023/09/27 04:26:23;;;;;;;8.07;5.65;;;;;;;13.24;79.07;99355.13;5025165;28;20396;-81
2023/09/27 04:28:50;;;;;;;7.13;5.88;;;;;;;13.17;78.92;99353.72;5020348;28;20101;-81
2023/09/27 04:31:16;;;;;;;7.32;6.13;;;;;;;13.14;79.16;99355.03;5026991;28;20065;-81
2023/09/27 04:33:44;;;;;;;9.27;5.72;;;;;;;13.05;79.05;99343.16;5040823;28;20068;-80
2023/09/27 04:36:15;;;;;;;10.80;6.85;;;;;;;12.86;79.81;99336.47;5020568;28;20033;-81
2023/09/27 04:38:47;;;;;;;7.97;6.75;;;;;;;13.08;79.40;99349.88;5007191;28;20029;-80
2023/09/27 04:41:17;;;;;;;10.27;7.10;;;;;;;13.13;79.19;99349.91;5036740;28;20091;-83
2023/09/27 04:43:46;;;;;;;8.07;6.75;;;;;;;13.03;79.68;99339.88;5041346;28;20548;-80
2023/09/27 04:46:16;;;;;;;7.65;6.95;;;;;;;13.15;79.44;99351.28;5022851;28;20025;-81
2023/09/27 04:48:41;;;;;;;11.13;6.55;;;;;;;12.94;79.54;99343.25;5040252;28;20053;-81
2023/09/27 04:51:07;;;;;;;8.50;7.00;;;;;;;12.88;79.96;99342.41;5024694;28;20123;-81
2023/09/27 04:53:36;;;;;;;7.68;6.90;;;;;;;13.02;79.59;99345.50;5039933;28;20029;-80
2023/09/27 04:56:02;;;;;;;9.38;6.15;;;;;;;12.98;79.23;99337.13;5037807;28;20092;-80
2023/09/27 04:58:27;;;;;;;9.18;6.63;;;;;;;12.99;79.34;99341.44;5046590;28;20021;-81
2023/09/27 05:00:53;;;;;;;14.85;6.53;;;;;;;13.01;78.76;99342.00;5042026;28;20136;-82
2023/09/27 05:03:18;;;;;;;8.65;6.22;;;;;;;12.89;79.68;99345.88;5012308;28;20036;-81
2023/09/27 05:05:44;;;;;;;7.20;6.18;;;;;;;13.00;79.66;99356.44;5027362;28;20511;-81
2023/09/27 05:08:09;;;;;;;8.45;6.43;;;;;;;13.00;79.63;99356.44;5043316;28;20427;-81
2023/09/27 05:10:36;;;;;;;8.13;6.75;;;;;;;13.07;79.42;99364.31;5048393;28;20546;-81
2023/09/27 05:13:02;;;;;;;6.65;5.95;;;;;;;12.80;80.12;99350.84;5027405;28;20123;-81
2023/09/27 05:15:27;;;;;;;11.27;7.22;;;;;;;12.93;80.67;99355.03;5047643;28;20039;-81
2023/09/27 05:17:52;;;;;;;7.85;7.05;;;;;;;12.70;81.27;99356.09;5044334;28;20033;-81
2023/09/27 05:20:18;;;;;;;8.32;6.72;;;;;;;12.77;81.54;99370.13;5026627;28;20113;-81
2023/09/27 05:22:43;;;;;;;9.82;7.93;;;;;;;12.72;80.80;99362.84;5041736;28;20094;-81
2023/09/27 05:25:10;;;;;;;10.68;7.47;;;;;;;12.80;80.90;99366.91;5043193;28;20025;-81
2023/09/27 05:27:36;;;;;;;10.20;7.88;;;;;;;12.90;80.75;99353.66;5046729;28;20111;-82
2023/09/27 05:30:03;;;;;;;11.50;8.32;;;;;;;13.05;80.50;99361.09;5030018;28;20044;-82
2023/09/27 05:32:29;;;;;;;7.85;7.03;;;;;;;12.96;80.51;99352.66;5048061;28;20434;-81
2023/09/27 05:34:54;;;;;;;8.95;7.13;;;;;;;12.95;80.40;99364.44;5026035;28;20163;-82
2023/09/27 05:37:20;;;;;;;9.55;7.45;;;;;;;12.83;80.62;99366.44;5050830;28;20035;-82
2023/09/27 05:39:45;;;;;;;10.23;7.38;;;;;;;12.77;80.60;99351.38;5051942;28;20043;-82
2023/09/27 05:42:11;;;;;;;8.85;7.03;;;;;;;12.85;80.59;99364.31;5051784;28;20055;-82
2023/09/27 05:44:36;;;;;;;9.38;7.38;;;;;;;13.01;80.28;99363.44;5034173;28;20583;-81
2023/09/27 05:47:01;;;;;;;7.88;6.97;;;;;;;12.85;80.27;99366.19;5052163;28;20104;-82
2023/09/27 05:49:27;;;;;;;9.48;7.20;;;;;;;12.73;80.34;99353.72;5042705;28;20039;-81
2023/09/27 05:51:52;;;;;;;7.05;6.25;;;;;;;12.78;79.91;99347.63;5032754;28;20035;-81
2023/09/27 05:54:21;;;;;;;7.97;7.10;;;;;;;12.88;80.58;99371.88;5052296;28;20049;-81
2023/09/27 05:56:51;;;;;;;9.38;7.00;;;;;;;12.79;80.63;99352.75;5048940;28;20125;-81
2023/09/27 05:59:17;;;;;;;8.80;6.68;;;;;;;12.76;80.65;99358.59;5014353;28;20095;-82
2023/09/27 06:01:43;;;;;;;7.72;6.93;;;;;;;12.91;80.96;99376.69;5016940;28;20095;-81
2023/09/27 06:04:08;;;;;;;8.02;6.80;;;;;;;12.77;81.12;99359.41;5034430;28;20028;-81
2023/09/27 06:06:36;;;;;;;8.77;7.13;;;;;;;12.79;81.11;99376.84;5033527;28;20040;-82
2023/09/27 06:09:02;;;;;;;8.77;7.13;;;;;;;12.93;81.52;99387.97;5048228;28;20031;-81
2023/09/27 06:11:28;;;;;;;9.82;7.03;;;;;;;12.85;81.25;99382.25;5047718;28;20045;-82
2023/09/27 06:13:54;;;;;;;8.55;7.35;;;;;;;12.31;83.08;99386.63;5049940;28;20036;-81
2023/09/27 06:16:19;;;;;;;8.32;6.57;;;;;;;12.63;82.53;99382.25;5051321;28;20029;-81
2023/09/27 06:18:45;;;;;;;7.68;6.40;;;;;;;12.72;82.05;99378.09;5049947;28;21049;-81
2023/09/27 06:21:11;;;;;;;7.85;6.30;;;;;;;12.82;82.13;99388.91;5050913;28;20024;-82
2023/09/27 06:23:37;;;;;;;7.53;6.72;;;;;;;12.86;82.35;99381.22;5045404;28;20436;-81
2023/09/27 06:26:02;;;;;;;7.72;6.93;;;;;;;12.90;82.05;99387.69;5030200;28;20079;-82
2023/09/27 06:28:28;;;;;;;7.50;6.70;;;;;;;12.89;82.40;99388.75;5050707;28;20416;-81
2023/09/27 06:30:53;;;;;;;12.32;9.45;;;;;;;12.19;85.84;99388.63;5052999;28;20053;-82
2023/09/27 06:33:19;;;;;;;12.38;8.30;;;;;;;12.18;86.79;99385.13;5030390;28;20064;-81
2023/09/27 06:35:45;;;;;;;11.90;8.13;;;;;;;12.75;83.74;99383.75;5050136;28;20033;-81
2023/09/27 06:38:10;;;;;;;7.68;6.78;;;;;;;12.79;83.37;99371.50;5049502;28;20032;-82
2023/09/27 06:40:35;;;;;;;8.60;7.65;;;;;;;12.82;83.54;99360.25;5050025;28;20037;-82
2023/09/27 06:43:01;;;;;;;11.45;8.20;;;;;;;12.78;83.91;99363.69;5030049;28;20171;-82
2023/09/27 06:45:27;;;;;;;12.18;9.63;;;;;;;12.78;84.15;99383.25;5050944;28;20090;-81
2023/09/27 06:47:52;;;;;;;9.27;8.35;;;;;;;12.84;84.84;99362.72;5050101;28;20029;-81
2023/09/27 06:50:18;;;;;;;10.05;8.88;;;;;;;13.11;84.04;99370.78;5050339;28;20032;-82
2023/09/27 06:52:45;;;;;;;10.80;8.90;;;;;;;12.93;84.20;99373.78;5030804;28;20040;-82
2023/09/27 06:55:12;;;;;;;12.00;9.18;;;;;;;12.99;84.47;99388.88;5049469;28;20391;-81
2023/09/27 06:57:39;;;;;;;9.70;8.70;;;;;;;12.93;84.44;99387.19;5050278;28;20028;-81
2023/09/27 07:00:13;;;;;;;10.63;9.13;;;;;;;12.99;84.12;99388.88;5050442;28;20031;-81
2023/09/27 07:02:42;;;;;;;10.75;8.88;;;;;;;12.91;84.62;99387.41;5046799;28;20041;-81
2023/09/27 07:05:11;;;;;;;12.75;8.75;;;;;;;12.91;84.23;99387.41;5047097;28;20099;-82
2023/09/27 07:07:37;;;;;;;10.73;8.65;;;;;;;12.84;84.82;99380.66;5048206;28;20080;-82
2023/09/27 07:10:02;;;;;;;16.08;8.30;;;;;;;12.96;84.46;99395.53;5025843;28;20441;-81
2023/09/27 07:12:27;;;;;;;11.32;8.45;;;;;;;13.18;84.13;99393.66;5030900;28;20132;-82
2023/09/27 07:14:53;;;;;;;10.10;8.13;;;;;;;13.12;84.47;99401.91;5031089;28;20124;-82
2023/09/27 07:17:20;;;;;;;11.35;8.43;;;;;;;13.02;84.36;99386.47;5025096;28;20495;-81
2023/09/27 07:19:50;;;;;;;12.25;10.60;;;;;;;12.95;87.42;99393.09;5047912;28;20041;-82
2023/09/27 07:22:16;;;;;;;17.00;13.82;;;;;;;12.71;92.65;99382.63;5041891;28;20515;-81
2023/09/27 07:24:41;;;;;;;10.25;9.20;;;;;;;12.86;90.74;99389.25;5016306;28;20032;-81
2023/09/27 07:27:06;;;;;;;9.93;8.93;;;;;;;13.02;86.44;99386.47;5049149;28;20116;-81
2023/09/27 07:29:33;;;;;;;14.32;12.45;;;;;;;13.06;89.12;99392.97;5026174;28;20479;-81
2023/09/27 07:31:58;;;;;;;12.38;9.60;;;;;;;13.12;87.39;99400.03;5039157;28;20119;-81
2023/09/27 07:34:24;;;;;;;11.68;8.95;;;;;;;13.28;86.45;99401.03;5048013;28;20037;-81
2023/09/27 07:36:51;;;;;;;10.73;8.50;;;;;;;13.23;86.00;99384.88;5051198;28;20029;-81
2023/09/27 07:39:17;;;;;;;12.82;10.10;;;;;;;13.39;85.88;99398.16;5045962;28;20044;-82
2023/09/27 07:41:44;;;;;;;10.10;9.10;;;;;;;13.34;86.55;99387.41;5043549;28;20036;-82
2023/09/27 07:44:10;;;;;;;13.20;10.02;;;;;;;13.36;86.77;99382.59;5049639;28;20025;-81
2023/09/27 07:46:36;;;;;;;15.82;11.65;;;;;;;13.23;88.70;99366.94;5042687;28;20058;-82
2023/09/27 07:49:01;;;;;;;12.07;10.88;;;;;;;13.19;89.34;99368.47;5030400;28;20029;-81
2023/09/27 07:51:27;;;;;;;17.40;14.43;;;;;;;13.16;91.13;99366.31;5042050;28;20087;-82
2023/09/27 07:53:53;;;;;;;13.55;12.15;;;;;;;13.25;91.58;99367.47;5023370;28;20374;-82
2023/09/27 07:56:21;;;;;;;20.15;14.65;;;;;;;13.13;94.48;99353.41;5029151;28;20677;-81
2023/09/27 07:58:51;;;;;;;13.02;8.70;;;;;;;13.56;88.79;99365.09;5017064;28;20043;-81
2023/09/27 08:01:20;;;;;;;10.73;8.82;;;;;;;13.70;86.85;99350.97;5044433;28;20043;-82
2023/09/27 08:03:48;;;;;;;12.10;9.55;;;;;;;13.63;86.76;99352.28;5032397;28;20037;-81
2023/09/27 08:06:13;;;;;;;11.80;9.60;;;;;;;13.61;89.05;99360.56;5034359;28;20032;-81
2023/09/27 08:08:39;;;;;;;11.30;9.02;;;;;;;13.80;87.36;99356.44;5047506;28;20028;-81
2023/09/27 08:11:04;;;;;;;11.75;10.45;;;;;;;13.84;88.82;99343.31;5031427;28;20396;-81
2023/09/27 08:13:31;;;;;;;16.02;11.85;;;;;;;13.87;91.24;99353.53;5033430;28;20112;-81
2023/09/27 08:15:57;;;;;;;14.55;9.57;;;;;;;13.79;89.61;99354.00;5047899;28;20425;-81
2023/09/27 08:18:25;;;;;;;10.80;9.65;;;;;;;14.11;87.15;99365.50;5051332;28;20493;-82
2023/09/27 08:20:52;;;;;;;10.57;9.35;;;;;;;14.12;86.88;99362.56;5030563;28;20036;-81
2023/09/27 08:23:18;;;;;;;9.30;8.43;;;;;;;14.19;87.25;99354.31;5049156;28;20041;-82
2023/09/27 08:25:43;;;;;;;11.13;8.27;;;;;;;14.18;88.51;99363.41;5049025;28;20650;-81
2023/09/27 08:28:09;;;;;;;13.35;11.18;;;;;;;13.73;91.11;99298.69;5048377;28;20401;-82
2023/09/27 08:30:35;;;;;;;10.25;9.20;;;;;;;14.04;91.75;99360.34;5026910;28;20064;-81
2023/09/27 08:33:01;;;;;;;13.88;10.68;;;;;;;14.02;90.66;99340.22;5030508;28;20047;-82
2023/09/27 08:35:27;;;;;;;9.98;8.98;;;;;;;14.21;89.55;99336.06;5044197;28;20461;-81
2023/09/27 08:37:52;;;;;;;13.70;8.95;;;;;;;14.27;91.09;99343.88;5045643;28;20413;-81
2023/09/27 08:40:18;;;;;;;17.48;12.80;;;;;;;14.25;94.22;99339.81;5049214;28;20040;-81
2023/09/27 08:42:43;;;;;;;12.38;10.50;;;;;;;14.33;91.03;99317.88;5032333;28;20025;-81
2023/09/27 08:45:14;;;;;;;14.48;12.13;;;;;;;14.40;95.14;99325.69;5031156;28;20531;-81
2023/09/27 08:47:45;;;;;;;16.27;11.90;;;;;;;14.39;95.46;99324.09;5043575;28;20033;-81
2023/09/27 08:50:13;;;;;;;14.32;12.25;;;;;;;14.66;96.47;99333.63;5046149;28;20127;-81
2023/09/27 08:52:43;;;;;;;12.38;9.93;;;;;;;14.68;94.65;99338.72;5022013;28;20416;-81
2023/09/27 08:55:09;;;;;;;12.77;11.48;;;;;;;14.74;94.53;99332.31;5035956;28;20071;-81
2023/09/27 08:57:37;;;;;;;17.52;12.75;;;;;;;14.78;95.11;99328.84;5032252;28;20372;-81
2023/09/27 09:00:13;;;;;;;16.48;11.02;;;;;;;15.00;91.93;99328.63;5048869;28;20055;-81
2023/09/27 09:02:40;;;;;;;12.30;11.00;;;;;;;15.00;93.82;99344.75;5032951;28;20083;-82
2023/09/27 09:05:07;;;;;;;16.33;11.48;;;;;;;15.28;90.95;99354.22;5042051;28;20029;-81
2023/09/27 09:07:35;;;;;;;13.07;11.35;;;;;;;15.13;90.45;99319.25;5030781;28;20492;-82
2023/09/27 09:10:00;;;;;;;12.90;11.10;;;;;;;15.43;90.64;99347.03;5048876;28;20040;-81
2023/09/27 09:12:26;;;;;;;16.10;10.88;;;;;;;15.39;89.70;99332.47;5049522;28;20103;-81
2023/09/27 09:14:54;;;;;;;16.52;10.77;;;;;;;15.49;90.39;99345.94;5017396;28;20052;-82
2023/09/27 09:17:25;;;;;;;12.60;11.30;;;;;;;15.47;91.37;99331.97;5030615;28;20489;-81
2023/09/27 09:20:17;;;;;;;13.40;10.40;;;;;;;15.66;92.17;99326.88;5050316;28;20021;-81
2023/09/27 09:22:46;;;;;;;14.13;9.80;;;;;;;15.82;89.82;99333.03;5045223;28;20389;-82
2023/09/27 09:25:11;;;;;;;14.75;10.43;;;;;;;15.66;92.21;99322.25;5051647;28;20031;-82
2023/09/27 09:27:37;;;;;;;13.90;10.63;;;;;;;15.81;90.86;99315.28;5026479;28;20060;-81
2023/09/27 09:30:06;;;;;;;15.30;10.25;;;;;;;15.77;91.94;99320.38;5018480;28;20025;-82
2023/09/27 09:32:33;;;;;;;13.25;9.77;;;;;;;15.91;92.71;99316.06;5018964;28;20029;-82
2023/09/27 09:34:59;;;;;;;10.95;9.82;;;;;;;16.07;91.39;99325.75;5046489;28;20020;-81
2023/09/27 09:37:29;;;;;;;10.05;8.55;;;;;;;16.28;89.87;99332.69;5048436;28;20120;-82
2023/09/27 09:40:14;;;;;;;10.57;9.43;;;;;;;16.12;90.44;99323.03;5051003;28;20078;-82
2023/09/27 09:42:41;;;;;;;13.30;11.00;;;;;;;16.20;90.74;99330.56;5031836;28;20049;-82
2023/09/27 09:45:10;;;;;;;10.98;9.27;;;;;;;16.49;89.22;99333.41;5049214;28;20397;-81
2023/09/27 09:47:41;;;;;;;10.75;9.63;;;;;;;16.36;88.90;99317.84;5047494;28;20029;-82
2023/09/27 09:50:08;;;;;;;11.50;9.52;;;;;;;16.57;88.88;99329.41;5045549;28;20033;-81
2023/09/27 09:52:38;;;;;;;10.80;9.75;;;;;;;16.44;87.56;99306.50;5053390;28;20041;-82
2023/09/27 09:55:06;;;;;;;11.05;9.40;;;;;;;16.42;89.39;99322.16;5022517;28;20033;-81
2023/09/27 09:57:35;;;;;;;12.43;9.15;;;;;;;16.45;88.68;99308.94;5043635;28;20037;-82
2023/09/27 10:00:25;;;;;;;11.27;9.25;;;;;;;17.00;86.69;99323.25;5049755;28;20033;-81
2023/09/27 10:03:04;;;;;;;8.48;7.63;;;;;;;16.98;87.82;99334.34;5032729;28;20025;-82
2023/09/27 10:05:39;;;;;;;14.35;8.75;;;;;;;16.98;86.61;99331.63;5048829;28;20757;-82
2023/09/27 10:08:06;;;;;;;13.30;8.63;;;;;;;17.34;85.65;99329.53;5051641;28;20025;-82
2023/09/27 10:10:32;;;;;;;13.05;9.20;;;;;;;17.34;84.62;99307.94;5031537;28;20041;-82
2023/09/27 10:12:59;;;;;;;10.63;7.70;;;;;;;17.49;83.98;99317.81;5049655;28;20029;-82
2023/09/27 10:15:25;;;;;;;14.35;8.45;;;;;;;17.41;85.25;99319.22;5048801;28;20029;-82
2023/09/27 10:17:51;;;;;;;10.10;7.72;;;;;;;17.55;84.04;99317.53;5030840;28;20048;-82
2023/09/27 10:20:20;;;;;;;8.27;7.25;;;;;;;17.63;83.17;99305.31;5049285;28;20037;-81
2023/09/27 10:22:47;;;;;;;8.40;7.30;;;;;;;17.90;82.19;99295.63;5046922;28;20029;-81
2023/09/27 10:25:27;;;;;;;9.35;7.35;;;;;;;18.13;81.24;99306.75;5029262;28;20025;-82
2023/09/27 10:27:58;;;;;;;9.95;7.03;;;;;;;18.29;80.34;99297.38;5048885;28;20396;-81
2023/09/27 10:30:24;;;;;;;16.30;6.63;;;;;;;18.39;79.38;99303.44;5043355;28;20121;-82
2023/09/27 10:33:15;;;;;;;8.40;7.25;;;;;;;18.45;78.75;99305.06;5050265;28;20037;-82
2023/09/27 10:36:03;;;;;;;7.78;6.70;;;;;;;18.48;77.87;99293.66;5050233;28;20040;-82
2023/09/27 10:38:41;;;;;;;6.57;5.88;;;;;;;18.57;76.97;99313.56;5046350;28;20048;-82
2023/09/27 10:41:07;;;;;;;6.45;5.85;;;;;;;18.62;76.85;99312.69;5050657;28;20025;-82
2023/09/27 10:43:32;;;;;;;6.32;5.72;;;;;;;18.86;75.79;99321.56;5049515;28;20388;-82
2023/09/27 10:45:59;;;;;;;6.75;6.05;;;;;;;18.75;76.10;99311.97;5051791;28;20024;-82
2023/09/27 10:48:24;;;;;;;8.30;6.45;;;;;;;18.69;76.27;99313.16;5050099;28;20040;-81
2023/09/27 10:50:56;;;;;;;7.18;5.38;;;;;;;18.79;77.14;99312.19;5028135;28;20030;-82
2023/09/27 10:53:22;;;;;;;8.43;6.00;;;;;;;18.96;75.75;99290.88;5044020;28;20153;-82
2023/09/27 10:55:47;;;;;;;6.40;5.85;;;;;;;19.19;74.36;99301.63;5044589;28;20128;-81
2023/09/27 10:58:16;;;;;;;6.30;5.63;;;;;;;19.27;74.42;99302.84;5050126;28;20029;-82
2023/09/27 11:01:04;;;;;;;8.02;5.55;;;;;;;19.30;74.04;99296.88;5050217;28;20028;-82
2023/09/27 11:03:30;;;;;;;6.13;5.57;;;;;;;19.16;75.03;99291.38;5030935;28;20116;-82
2023/09/27 11:06:09;;;;;;;8.43;5.75;;;;;;;19.24;74.00;99270.97;5050932;28;20108;-82
2023/09/27 11:08:35;;;;;;;7.32;5.30;;;;;;;19.44;74.78;99282.31;5048812;28;20098;-82
2023/09/27 11:11:01;;;;;;;6.82;6.15;;;;;;;19.33;74.34;99283.53;5047442;28;20060;-81
2023/09/27 11:13:29;;;;;;;7.50;5.10;;;;;;;19.31;73.75;99277.63;5049939;28;20074;-82
2023/09/27 11:16:07;;;;;;;5.60;5.00;;;;;;;19.53;74.83;99284.34;5047970;28;20369;-82
2023/09/27 11:18:42;;;;;;;5.30;4.68;;;;;;;19.88;73.98;99270.19;5044427;28;20031;-82
2023/09/27 11:21:11;;;;;;;14.80;6.78;;;;;;;19.53;74.11;99244.53;5049283;28;20111;-82
2023/09/27 11:23:56;;;;;;;7.00;5.18;;;;;;;19.74;72.90;99274.78;5049514;28;20031;-82
2023/09/27 11:26:25;;;;;;;5.35;4.90;;;;;;;19.68;73.69;99274.03;5048025;28;20028;-82
2023/09/27 11:28:57;;;;;;;8.55;5.60;;;;;;;19.70;73.03;99265.66;5048048;28;20048;-82
2023/09/27 11:31:36;;;;;;;9.57;5.28;;;;;;;19.88;73.38;99260.16;5044883;28;20037;-82